地図

経路データ

SID SEASON NUMBER BASIN SUBBASIN NAME ISO_TIME NATURE LAT LON WMO_WIND WMO_PRES WMO_AGENCY TRACK_TYPE DIST2LAND LANDFALL IFLAG USA_AGENCY USA_ATCF_ID USA_LAT USA_LON USA_RECORD USA_STATUS USA_WIND USA_PRES USA_SSHS USA_R34_NE USA_R34_SE USA_R34_SW USA_R34_NW USA_R50_NE USA_R50_SE USA_R50_SW USA_R50_NW USA_R64_NE USA_R64_SE USA_R64_SW USA_R64_NW USA_POCI USA_ROCI USA_RMW USA_EYE TOKYO_LAT TOKYO_LON TOKYO_GRADE TOKYO_WIND TOKYO_PRES TOKYO_R50_DIR TOKYO_R50_LONG TOKYO_R50_SHORT TOKYO_R30_DIR TOKYO_R30_LONG TOKYO_R30_SHORT TOKYO_LAND CMA_LAT CMA_LON CMA_CAT CMA_WIND CMA_PRES HKO_LAT HKO_LON HKO_CAT HKO_WIND HKO_PRES NEWDELHI_LAT NEWDELHI_LON NEWDELHI_GRADE NEWDELHI_WIND NEWDELHI_PRES NEWDELHI_CI NEWDELHI_DP NEWDELHI_POCI REUNION_LAT REUNION_LON REUNION_TYPE REUNION_WIND REUNION_PRES REUNION_TNUM REUNION_CI REUNION_RMW REUNION_R34_NE REUNION_R34_SE REUNION_R34_SW REUNION_R34_NW REUNION_R50_NE REUNION_R50_SE REUNION_R50_SW REUNION_R50_NW REUNION_R64_NE REUNION_R64_SE REUNION_R64_SW REUNION_R64_NW BOM_LAT BOM_LON BOM_TYPE BOM_WIND BOM_PRES BOM_TNUM BOM_CI BOM_RMW BOM_R34_NE BOM_R34_SE BOM_R34_SW BOM_R34_NW BOM_R50_NE BOM_R50_SE BOM_R50_SW BOM_R50_NW BOM_R64_NE BOM_R64_SE BOM_R64_SW BOM_R64_NW BOM_ROCI BOM_POCI BOM_EYE BOM_POS_METHOD BOM_PRES_METHOD NADI_LAT NADI_LON NADI_CAT NADI_WIND NADI_PRES WELLINGTON_LAT WELLINGTON_LON WELLINGTON_WIND WELLINGTON_PRES DS824_LAT DS824_LON DS824_STAGE DS824_WIND DS824_PRES TD9636_LAT TD9636_LON TD9636_STAGE TD9636_WIND TD9636_PRES TD9635_LAT TD9635_LON TD9635_WIND TD9635_PRES TD9635_ROCI NEUMANN_LAT NEUMANN_LON NEUMANN_CLASS NEUMANN_WIND NEUMANN_PRES MLC_LAT MLC_LON MLC_CLASS MLC_WIND MLC_PRES USA_GUST BOM_GUST BOM_GUST_PER REUNION_GUST REUNION_GUST_PER USA_SEAHGT USA_SEARAD_NE USA_SEARAD_SE USA_SEARAD_SW USA_SEARAD_NW STORM_SPEED STORM_DIR
1956242N16132 1956 80 WP MM DINAH 1956-08-28 18:00:00 TS 16.1000 132.000 main 825 825 __O___________ -1 16.1000 132.000 0 1002 10 5
1956242N16132 1956 80 WP MM DINAH 1956-08-28 21:00:00 TS 16.5825 132.042 main 856 856 __P___________ -1 16.5825 132.042 0 1002 9 346
1956242N16132 1956 80 WP MM DINAH 1956-08-29 00:00:00 TS 17.0000 131.771 main 865 816 O_O______OOO__ jtwc_wp WP111956 17.0000 131.600 25 -1 17.0000 132.000 0 1002 17.0000 131.600 TC 25 17.0000 131.600 1 25 17.0000 131.600 25 1003 120 11 309
1956242N16132 1956 80 WP MM DINAH 1956-08-29 03:00:00 TS 17.2700 131.141 main 812 776 P_P______PPP__ WP111956 17.2264 130.703 25 -1 17.3151 131.823 0 1002 17.2264 130.703 TC 25 17.3106 131.094 1 25 17.2264 130.703 25 1002 120 13 296
1956242N16132 1956 80 WP MM DINAH 1956-08-29 06:00:00 TS 17.5468 130.578 main 776 770 O_O______OPO__ jtwc_wp WP111956 17.5000 130.100 25 -1 17.6000 131.600 1 29 1002 17.5000 130.100 TC 25 17.6163 130.650 1 25 17.5000 130.100 25 1002 120 10 309
1956242N16132 1956 80 WP MM DINAH 1956-08-29 09:00:00 TS 17.8794 130.347 main 773 773 P_P______PPP__ WP111956 17.8495 129.992 25 -1 17.9350 131.428 1 29 1002 17.8495 129.992 TC 25 17.9138 130.331 1 25 17.8495 129.992 25 1001 120 7 347
1956242N16132 1956 80 WP MM DINAH 1956-08-29 12:00:00 TS 18.2200 130.420 main 801 801 O_O______OOO__ jtwc_wp WP111956 18.2000 130.200 25 -1 18.3000 131.300 1 29 1002 18.2000 130.200 TC 25 18.2000 130.200 1 25 18.2000 130.200 25 1001 120 7 20
1956242N16132 1956 80 WP MM DINAH 1956-08-29 15:00:00 TS 18.5166 130.589 main 838 838 P_P______PPP__ WP111956 18.4651 130.470 32 -1 18.7150 131.235 1 33 1001 18.4651 130.470 TC 32 18.4724 130.298 1 31 18.4651 130.470 31 1000 150 7 35
1956242N16132 1956 80 WP MM DINAH 1956-08-29 18:00:00 TS 18.7860 130.834 main 875 875 O_O______OPO__ jtwc_wp WP111956 18.7000 130.800 40 0 19.1000 131.200 2 38 1000 18.7000 130.800 TC 40 18.7302 130.568 1 37 18.7000 130.800 38 1000 180 7 39
1956242N16132 1956 80 WP MM DINAH 1956-08-29 21:00:00 TS 19.0480 131.037 main 906 906 P_P______PPP__ WP111956 18.9649 131.043 45 0 19.3725 131.128 2 38 1000 18.9649 131.043 TC 45 18.9728 130.930 1 43 18.9649 131.043 44 1000 180 6 39
1956242N16132 1956 80 WP MM DINAH 1956-08-30 00:00:00 TS 19.2800 131.260 main 951 951 O_O______OOO__ jtwc_wp WP111956 19.2000 131.300 50 0 19.6000 131.100 2 38 1000 19.2000 131.300 TC 50 19.2000 131.300 2 50 19.2000 131.300 50 1000 180 7 50
1956242N16132 1956 80 WP MM DINAH 1956-08-30 03:00:00 TS 19.4679 131.565 main 985 985 P_P______PPP__ WP111956 19.3501 131.665 50 0 19.8500 131.177 2 43 999 19.3501 131.665 TC 50 19.4389 131.650 2 50 19.3501 131.665 50 999 180 7 56
1956242N16132 1956 80 WP MM DINAH 1956-08-30 06:00:00 TS 19.6520 131.856 main 1019 1019 O_O______OPO__ jtwc_wp WP111956 19.5000 132.000 50 0 20.1000 131.300 3 48 998 19.5000 132.000 TC 50 19.6600 131.979 2 50 19.5000 132.000 50 999 180 6 47
1956242N16132 1956 80 WP MM DINAH 1956-08-30 09:00:00 TS 19.8992 132.056 main 1042 1042 P_P______PPP__ WP111956 19.7499 132.225 50 0 20.3950 131.385 3 48 997 19.7499 132.225 TC 50 19.8511 132.219 2 50 19.7499 132.225 50 998 180 5 30
1956242N16132 1956 80 WP MM DINAH 1956-08-30 12:00:00 TS 20.1200 132.140 main 1046 1046 O_O______OOO__ jtwc_wp WP111956 20.0000 132.300 50 0 20.6000 131.500 3 48 996 20.0000 132.300 TC 50 20.0000 132.300 2 50 20.0000 132.300 50 997 180 4 11
1956242N16132 1956 80 WP MM DINAH 1956-08-30 15:00:00 TS 20.2617 132.127 main 1049 1039 P_P______PPP__ WP111956 20.1948 132.248 55 0 20.6026 131.730 3 48 996 20.1948 132.248 TC 55 20.1214 132.162 2 56 20.1948 132.248 56 996 210 3 322
1956242N16132 1956 80 WP MM DINAH 1956-08-30 18:00:00 TS 20.3186 131.974 996 tokyo main 1039 1008 OOO______OPO__ jtwc_wp WP111956 20.3000 132.000 60 0 20.3000 132.400 2 996 0 0 0 20.5000 131.900 3 48 996 20.3000 132.000 TC 60 20.1974 131.861 2 62 20.3000 132.000 62 995 240 4 275
1956242N16132 1956 80 WP MM DINAH 1956-08-30 21:00:00 TS 20.2959 131.674 main 1008 965 PPP______PPP__ WP111956 20.2801 131.560 67 1 20.3261 132.273 2 994 0 0 20.3995 131.935 3 53 994 20.2801 131.560 TC 67 20.2247 131.455 2 68 20.2801 131.560 68 994 240 7 263
1956242N16132 1956 80 WP MM DINAH 1956-08-31 00:00:00 TS 20.2304 131.226 992 tokyo main 955 904 OOO______OOO__ jtwc_wp WP111956 20.2000 131.000 75 1 20.3000 131.800 9 992 0 0 0 20.3000 131.700 3 58 992 20.2000 131.000 TC 75 20.2000 131.000 3 75 20.2000 131.000 75 993 240 10 264
1956242N16132 1956 80 WP MM DINAH 1956-08-31 03:00:00 TS 20.1851 130.619 main 893 830 PPP______PPP__ WP111956 20.1726 130.428 75 1 20.1821 130.807 9 991 0 0 20.2807 131.068 3 63 991 20.1726 130.428 TC 75 20.1299 130.557 3 75 20.1726 130.428 75 992 270 12 263
1956242N16132 1956 80 WP MM DINAH 1956-08-31 06:00:00 TS 20.0851 129.981 990 tokyo main 830 774 OOO______OPO__ jtwc_wp WP111956 20.1000 129.900 75 1 20.0000 129.800 9 990 0 0 0 20.2000 130.300 4 68 990 20.1000 129.900 TC 75 20.0107 130.084 3 75 20.1000 129.900 75 991 300 11 254
1956242N16132 1956 80 WP MM DINAH 1956-08-31 09:00:00 TS 19.8803 129.523 main 774 739 PPP______PPP__ WP111956 19.9073 129.497 75 1 19.7916 129.338 9 990 0 0 19.9074 129.689 4 68 989 19.9073 129.497 TC 75 19.8611 129.619 3 75 19.9073 129.497 75 991 300 9 241
1956242N16132 1956 80 WP MM DINAH 1956-08-31 12:00:00 TS 19.6667 129.183 990 tokyo main 739 706 OOO______OOO__ jtwc_wp WP111956 19.7000 129.200 75 1 19.6000 129.100 9 990 0 0 0 19.6000 129.200 4 68 989 19.7000 129.200 TC 75 19.7000 129.200 4 75 19.7000 129.200 75 992 300 7 239
1956242N16132 1956 80 WP MM DINAH 1956-08-31 15:00:00 TS 19.5461 128.932 main 704 682 PPP______PPP__ WP111956 19.5998 129.000 77 1 19.4999 128.843 9 989 0 0 19.4697 128.863 4 68 988 19.5998 129.000 TC 77 19.5077 128.883 4 77 19.5998 129.000 77 994 300 5 243
1956242N16132 1956 80 WP MM DINAH 1956-08-31 18:00:00 TS 19.4361 128.702 988 tokyo main 682 648 OOO______OPO__ jtwc_wp WP111956 19.5000 128.800 80 1 19.4000 128.600 9 988 0 0 0 19.4000 128.600 4 68 988 19.5000 128.800 TC 80 19.3166 128.612 4 80 19.5000 128.800 80 996 300 6 239
1956242N16132 1956 80 WP MM DINAH 1956-08-31 21:00:00 TS 19.2387 128.397 main 648 615 PPP______PPP__ WP111956 19.2776 128.465 82 1 19.1624 128.322 9 986 0 0 19.2699 128.307 4 68 987 19.2776 128.465 TC 82 19.1672 128.360 4 82 19.2776 128.465 82 994 300 7 241
1956242N16132 1956 80 WP MM DINAH 1956-09-01 00:00:00 TS 19.1000 128.067 985 tokyo main 615 584 OOO______OOO__ jtwc_wp WP111956 19.1000 128.100 85 2 19.0000 128.000 9 985 0 0 0 19.2000 128.000 4 68 986 19.1000 128.100 TC 85 19.1000 128.100 4 85 19.1000 128.100 85 992 300 6 259
1956242N16132 1956 80 WP MM DINAH 1956-09-01 03:00:00 TS 19.1219 127.739 main 573 544 PPP______PPP__ WP111956 19.0824 127.800 85 2 19.0826 127.608 9 982 0 0 19.2625 127.650 4 72 983 19.0824 127.800 TC 85 19.1395 127.778 4 85 19.0824 127.800 85 986 300 6 284
1956242N16132 1956 80 WP MM DINAH 1956-09-01 06:00:00 TS 19.2609 127.407 980 tokyo main 546 517 OOO______OPO__ jtwc_wp WP111956 19.2000 127.500 85 2 19.3000 127.200 9 980 0 0 0 19.4000 127.300 4 77 980 19.2000 127.500 TC 85 19.2652 127.443 4 85 19.2000 127.500 85 980 300 7 298
1956242N16132 1956 80 WP MM DINAH 1956-09-01 09:00:00 TS 19.4635 127.056 main 519 484 PPP______PPP__ WP111956 19.4126 127.143 85 2 19.5575 126.820 9 977 0 0 19.5275 126.977 4 77 978 19.4126 127.143 TC 85 19.4582 127.112 4 85 19.4126 127.143 85 980 300 8 306
1956242N16132 1956 80 WP MM DINAH 1956-09-01 12:00:00 TS 19.7167 126.733 975 tokyo main 484 471 OOO______OOO__ jtwc_wp WP111956 19.7000 126.800 85 2 19.8000 126.500 9 975 0 0 0 19.7000 126.700 4 77 977 19.7000 126.800 TC 85 19.7000 126.800 4 85 19.7000 126.800 85 980 300 7 313
1956242N16132 1956 80 WP MM DINAH 1956-09-01 15:00:00 TS 19.9575 126.491 main 475 460 PPP______PPP__ WP111956 19.9924 126.535 87 2 19.8923 126.300 9 972 0 0 19.9274 126.492 4 77 977 19.9924 126.535 TC 87 19.9482 126.552 4 87 19.9924 126.535 87 986 300 7 319
1956242N16132 1956 80 WP MM DINAH 1956-09-01 18:00:00 TS 20.2232 126.270 970 tokyo main 465 453 OOO______OPO__ jtwc_wp WP111956 20.3000 126.300 90 2 20.0000 126.100 9 970 0 0 0 20.2000 126.300 4 77 977 20.3000 126.300 TC 90 20.2392 126.322 4 90 20.3000 126.300 90 992 300 7 323
1956242N16132 1956 80 WP MM DINAH 1956-09-01 21:00:00 TS 20.5279 126.026 main 453 447 PPP______PPP__ WP111956 20.6148 126.080 92 2 20.2626 125.758 9 970 0 0 20.4999 126.080 4 82 976 20.6148 126.080 TC 92 20.5606 126.080 4 92 20.6148 126.080 92 989 300 8 320
1956242N16132 1956 80 WP MM DINAH 1956-09-02 00:00:00 TS 20.8333 125.733 970 tokyo main 445 435 OOO______OOO__ jtwc_wp WP111956 20.9000 125.800 95 2 20.6000 125.400 9 970 0 0 0 20.8000 125.800 5 87 976 20.9000 125.800 TC 95 20.9000 125.800 4 95 20.9000 125.800 95 987 300 8 311
1956242N16132 1956 80 WP MM DINAH 1956-09-02 03:00:00 TS 21.0673 125.353 main 443 421 PPP______PPP__ WP111956 21.0702 125.365 95 2 20.9423 125.157 9 970 0 0 21.0277 125.400 5 87 973 21.0702 125.365 TC 95 21.2232 125.467 4 95 21.0702 125.365 95 980 300 9 305
1956242N16132 1956 80 WP MM DINAH 1956-09-02 06:00:00 TS 21.3437 124.948 970 tokyo main 412 364 OOO______OPO__ jtwc_wp WP111956 21.3000 124.900 95 2 21.3000 124.900 9 970 0 0 0 21.3000 125.000 5 87 970 21.3000 124.900 TC 95 21.5620 125.089 4 95 21.3000 124.900 95 973 300 10 315
1956242N16132 1956 80 WP MM DINAH 1956-09-02 09:00:00 TS 21.7539 124.612 main 359 314 PPP______PPP__ WP111956 21.7546 124.565 95 2 21.6349 124.537 9 970 0 0 21.7046 124.772 5 87 970 21.7546 124.565 TC 95 21.9198 124.666 4 95 21.7546 124.565 95 976 300 11 323
1956242N16132 1956 80 WP MM DINAH 1956-09-02 12:00:00 TS 22.2333 124.233 970 tokyo main 304 249 OOO______OOO__ jtwc_wp WP111956 22.3000 124.200 95 2 22.0000 124.100 9 970 0 0 0 22.2000 124.500 5 87 970 22.3000 124.200 TC 95 22.3000 124.200 4 95 22.3000 124.200 95 980 300 13 320
1956242N16132 1956 80 WP MM DINAH 1956-09-02 15:00:00 TS 22.7324 123.725 main 239 182 PPP______PPP__ WP111956 22.8226 123.680 92 2 22.4275 123.615 9 970 0 0 22.7875 124.011 5 87 970 22.8226 123.680 TC 92 22.7118 123.685 4 92 22.8226 123.680 92 985 300 14 314
1956242N16132 1956 80 WP MM DINAH 1956-09-02 18:00:00 TS 23.2072 123.155 970 tokyo main 182 112 OOO______OPO__ jtwc_wp WP111956 23.3000 123.100 90 2 22.9000 123.100 9 970 0 0 0 23.3000 123.400 5 87 970 23.3000 123.100 TC 90 23.1429 123.130 4 90 23.3000 123.100 90 991 300 14 309
1956242N16132 1956 80 WP MM DINAH 1956-09-02 21:00:00 TS 23.5812 122.588 main 112 55 PPP______PPP__ WP111956 23.6574 122.542 87 2 23.4148 122.600 9 970 0 0 23.5227 122.741 5 87 970 23.6574 122.542 TC 87 23.5774 122.560 4 87 23.6574 122.542 87 994 300 13 305
1956242N16132 1956 80 WP MM DINAH 1956-09-03 00:00:00 TS 23.9333 122.033 970 tokyo main 46 0 OOO______OOO__ jtwc_wp WP111956 24.0000 122.000 85 2 23.9000 122.100 9 970 0 0 0 23.7000 122.100 5 87 970 24.0000 122.000 TC 85 24.0000 122.000 4 85 24.0000 122.000 85 997 300 12 308
1956242N16132 1956 80 WP MM DINAH 1956-09-03 03:00:00 TS 24.3484 121.519 main 0 0 PPP______PPP__ WP111956 24.4573 121.493 85 2 24.2573 121.607 9 970 0 0 24.0622 121.562 5 87 970 24.4573 121.493 TC 85 24.3992 121.470 4 83 24.4573 121.493 85 996 300 12 312
1956242N16132 1956 80 WP MM DINAH 1956-09-03 06:00:00 TS 24.7623 121.030 970 tokyo main 0 0 OOO______OPO__ jtwc_wp WP111956 24.9000 121.000 85 2 24.6000 121.100 9 970 0 0 0 24.5000 121.100 5 87 970 24.9000 121.000 TC 85 24.7780 120.966 4 82 24.9000 121.000 85 996 300 12 312
1956242N16132 1956 80 WP MM DINAH 1956-09-03 09:00:00 TS 25.1328 120.545 main 51 40 PPP______PPP__ WP111956 25.2298 120.500 82 1 25.0275 120.550 9 970 0 0 24.9421 120.707 5 82 971 25.2298 120.500 TC 82 25.1428 120.480 4 81 25.2298 120.500 82 995 300 11 309
1956242N16132 1956 80 WP MM DINAH 1956-09-03 12:00:00 TS 25.4800 120.060 970 tokyo main 41 0 OOO______OOO__ jtwc_wp WP111956 25.5000 120.000 80 1 25.5000 120.000 9 970 0 0 0 25.4000 120.300 4 77 972 25.5000 120.000 TC 80 25.5000 120.000 4 80 25.5000 120.000 80 995 300 11 306
1956242N16132 1956 80 WP MM DINAH 1956-09-03 15:00:00 TS 25.7913 119.558 main 0 0 PPP______P_P__ WP111956 25.6822 119.513 77 1 25.9771 119.507 9 974 0 0 25.8429 119.728 4 72 975 25.6822 119.513 TC 77 4 25.7528 119.500 77 994 300 12 308
1956242N16132 1956 80 WP MM DINAH 1956-09-03 18:00:00 TS 26.1882 119.047 978 tokyo main 0 0 OOO______O_O__ jtwc_wp WP111956 26.0000 119.000 75 1 26.5000 119.000 9 978 0 0 0 26.3000 119.200 4 68 979 26.0000 119.000 TC 75 4 26.0000 119.000 75 994 300 14 317
1956242N16132 1956 80 WP MM DINAH 1956-09-03 21:00:00 TS 26.8222 118.492 main 0 0 PPP______P____ WP111956 26.7131 118.342 70 1 27.0778 118.385 9 983 0 0 26.7847 118.897 4 58 982 26.7131 118.342 TC 70 4 16 325
1956242N16132 1956 80 WP MM DINAH 1956-09-04 00:00:00 TS 27.5000 118.025 988 tokyo main 0 0 OOO______O____ jtwc_wp WP111956 27.5000 117.800 65 1 27.7000 117.800 9 988 0 0 0 27.3000 118.700 3 48 986 27.5000 117.800 TC 65 14 330
1956242N16132 1956 80 WP MM DINAH 1956-09-04 03:00:00 TS 28.0309 117.707 main 0 0 PPP______P____ WP111956 28.0218 117.542 57 0 28.2899 117.252 9 989 0 0 27.7900 118.492 3 33 988 28.0218 117.542 TC 57 12 342
1956242N16132 1956 80 WP MM DINAH 1956-09-04 06:00:00 TS 28.6000 117.625 990 tokyo main 0 0 OOO______O____ jtwc_wp WP111956 28.5000 117.600 50 0 29.0000 117.000 9 990 0 0 0 28.4000 118.300 0 19 990 28.5000 117.600 TC 50 13 4
1956242N16132 1956 80 WP MM DINAH 1956-09-04 09:00:00 TS 29.3471 117.817 main 0 0 PPP______P____ WP111956 29.0852 117.959 42 0 29.9703 117.285 9 991 0 0 29.2476 118.063 0 19 991 29.0852 117.959 TC 42 17 15
1956242N16132 1956 80 WP MM DINAH 1956-09-04 12:00:00 TS 30.2143 118.129 992 tokyo main 0 0 OOO______O____ jtwc_wp WP111956 29.7000 118.500 35 0 31.0000 117.800 9 992 0 0 0 30.2000 117.900 0 19 992 29.7000 118.500 TC 35 18 14
1956242N16132 1956 80 WP MM DINAH 1956-09-04 15:00:00 TS 31.0894 118.304 main 0 0 PPP______P____ WP111956 30.3051 119.017 30 -1 31.8866 118.100 9 992 0 0 31.0765 117.796 0 19 991 30.3051 119.017 TC 30 19 10
1956242N16132 1956 80 WP MM DINAH 1956-09-04 18:00:00 TS 32.0600 118.500 992 tokyo main 0 0 OOO______O____ jtwc_wp WP111956 30.9000 119.500 25 -1 32.7000 118.500 9 992 0 0 0 32.0000 118.000 0 19 991 30.9000 119.500 TC 25 22 12
1956242N16132 1956 80 WP MM DINAH 1956-09-04 21:00:00 TS 33.2294 118.858 main 0 0 _PP___________ WP111956 -1 33.4409 119.104 9 992 0 0 33.0179 118.613 0 28 990 TC 24 28
1956242N16132 1956 80 WP MM DINAH 1956-09-05 00:00:00 ET 34.1500 119.850 992 tokyo main 0 0 _OO___________ -1 34.2000 120.000 9 992 0 0 0 34.1000 119.700 9 38 990 27 47
1956242N16132 1956 80 WP MM DINAH 1956-09-05 03:00:00 ET 35.0578 121.242 main 120 89 _PP___________ -1 34.9873 121.222 9 991 0 0 35.1283 121.263 9 38 989 32 51
1956242N16132 1956 80 WP MM DINAH 1956-09-05 06:00:00 ET 36.1500 122.850 990 tokyo main 85 77 _OO___________ -1 36.0000 122.700 9 990 0 0 0 36.3000 123.000 9 38 988 36 46
1956242N16132 1956 80 WP MM DINAH 1956-09-05 09:00:00 ET 37.5207 124.413 main 68 0 _PP___________ -1 37.3126 124.305 9 990 0 0 37.7287 124.522 9 38 988 39 39
1956242N16132 1956 80 WP MM DINAH 1956-09-05 12:00:00 ET 39.2000 125.950 990 tokyo main 0 0 _OO___________ -1 39.0000 126.000 9 990 0 0 0 39.4000 125.900 9 38 988 43 33
1956242N16132 1956 80 WP MM DINAH 1956-09-05 15:00:00 ET 41.1632 127.419 main 0 0 _PP___________ -1 41.0980 127.746 9 988 0 0 41.2284 127.091 9 28 986 46 29
1956242N16132 1956 80 WP MM DINAH 1956-09-05 18:00:00 ET 43.2571 128.929 986 tokyo main 0 0 _OO___________ -1 43.3000 129.400 9 986 0 0 0 43.2000 128.300 9 19 985 47 29
1956242N16132 1956 80 WP MM DINAH 1956-09-05 21:00:00 ET 45.2818 130.512 main 0 0 _PP___________ -1 45.3206 130.880 9 986 0 0 45.2042 129.778 9 19 985 43 29
1956242N16132 1956 80 WP MM DINAH 1956-09-06 00:00:00 ET 47.0400 131.900 986 tokyo main 0 0 _OO___________ -1 47.0000 132.000 9 986 0 0 0 47.2000 131.500 9 19 985 33 23
1956242N16132 1956 80 WP MM DINAH 1956-09-06 03:00:00 NR 48.2684 132.411 main 0 0 _P____________ -1 48.2684 132.411 9 988 0 0 9 21 20
1956242N16132 1956 80 WP MM DINAH 1956-09-06 06:00:00 TS 49.0000 133.000 990 tokyo main 0 0 _O____________ -1 49.0000 133.000 2 990 0 0 0 17 58
1956242N16132 1956 80 WP MM DINAH 1956-09-06 09:00:00 TS 49.1744 134.661 main 0 0 _P____________ -1 49.1744 134.661 2 995 0 0 26 90
1956242N16132 1956 80 WP MM DINAH 1956-09-06 12:00:00 TS 49.0000 137.000 1000 tokyo main 0 _O____________ -1 49.0000 137.000 2 1000 0 0 0 31 96

デジタル台風データ・検索

IBTrACS Databaseについて

本データベースは、米国NOAAが公開する1842年以降の世界の熱帯低気圧のベストトラックデータアーカイブInternational Best Track Archive for Climate Stewardship (IBTrACS)を、ウェブで閲覧しやすい形式に変換したものです。

最終更新日:2021-10-08